METAR AND TAF INFORMATION
METAR FOR LERS
ADDS - METARS form results

(0129 UTC 21 May 2019)
Data provider http://aviationweather.gov/metar/data/
 
METAR text: LERS 210100Z AUTO VRB02KT 9999 BKN011 12/11 Q1015
Conditions at: LERS (REUS (CIV/MIL) , ES) observed 0100 UTC 21 May 2019
Temperature: 12.0°C (54°F)
Dewpoint: 11.0°C (52°F) [RH = 94%]
Pressure (altimeter): 29.97 inches Hg (1015.0 mb)
Winds: variable direction winds at 2 MPH (2 knots; 1.0 m/s)
Visibility: 6 or more miles (10+ km)
Ceiling: 1100 feet AGL
Clouds: broken clouds at 1100 feet AGL
Weather: no significant weather observed at this time

METAR text: LERS 210030Z AUTO 00000KT 9999 NCD 12/11 Q1015
Conditions at: LERS (REUS (CIV/MIL) , ES) observed 0030 UTC 21 May 2019
Temperature: 12.0°C (54°F)
Dewpoint: 11.0°C (52°F) [RH = 94%]
Pressure (altimeter): 29.97 inches Hg (1015.0 mb)
Winds: calm
Visibility: 6 or more miles (10+ km)
Ceiling: at least 12,000 feet AGL
Clouds: sky clear below 12,000 feet AGL
Weather: no significant weather observed at this time

Forecast for: LERS (REUS (CIV/MIL) , ES)
Text: TAF LERS 202000Z 2021/2121 02005KT 9999 FEW050 TX22/2112Z TN10/2106Z
Forecast period: 2100 UTC 20 May 2019 to 0600 UTC 21 May 2019
Forecast type: FROM: standard forecast or significant change
Winds: from the NNE (20 degrees) at 6 MPH (5 knots; 2.6 m/s)
Visibility: 6 or more miles 10+ km)
Ceiling: at least 12,000 feet AGL
Clouds: few clouds at 5000 feet AGL
Weather: no significant weather forecast for this period
Text: BECMG 2106/2108 20008KT
Forecast period: 0600 to 2100 UTC 21 May 2019
Forecast type: BECOMING: Conditions expected to become as follows by 0800 UTC 21 May 2019
Winds: from the SSW (200 degrees) at 9 MPH (8 knots; 4.1 m/s)
Visibility: 6 or more miles 10+ km)
Ceiling: at least 12,000 feet AGL
Clouds: few clouds at 5000 feet AGL
Weather: no significant weather forecast for this period

 AIRPORT MAP

 RUNWAY INFORMATION
Runway 07 Runway length 8054 ft Runway width 148 ft
Runway elevation 231 ft Runway displaced threshold 853 ft Runway heading 69
Runway 25 Runway length 8054 ft Runway width 148 ft
Runway elevation 234 ft Runway displaced threshold 0 ft Runway heading 249
Runway 12 Runway length 3117 ft Runway width 115 ft
Runway elevation 226 ft Runway displaced threshold 0 ft Runway heading 111
Runway 30 Runway length 3117 ft Runway width 115 ft
Runway elevation 198 ft Runway displaced threshold 0 ft Runway heading 291

 AIRPORT FREQUENCIES
Type APP Name APP Frequency 118.15 MHZ
Type GND Name GND Frequency 121.7 MHZ
Type TWR Name TWR Frequency 118.15 MHZ

 AIRPORT NEAR NAVIGATION AIDS
Type VOR-DME Name Reus Frequency 114200 KHZ
Type NDB Name Reus Frequency 424 KHZ